Unalaska Airport
PADU : rendu visible

Aérodrome :











RETROUVEZ-NOUS SUR...

 
LOGIN :

S'inscrire | Disclaimer

   EN    FR    IT 

 









Légende :    VFR   VFR Marginal   IFR   IFR Intensif   IFR Très Intensif
Visi : 
Plafond : 
>= 8 km
>= 3000ft
5 à 8 km
1000 à 3000 ft
1500m à 5 km
500 à 1000 ft
800 à 1500m
200 à 500 ft
< 800m
< 200 ft
Symboles :   Orages  Brouillard  Fortes neiges  Fortes précipitations  Vent > 20 kt






- Altitude de l'aérodrome : 22 ft
- Code IATA : DUT


PADU - Unalaska

DERNIER METAR :
  • 271156Z AUTO 00000KT 10SM BKN038 01/M01 A2959 RMK AO2 SLP026 70001 T00111011 10022 20011 53001 FZRANO

METARs EXPIRÉS :
  • 271056Z AUTO 16005KT 10SM FEW027 BKN034 02/M01 A2959 RMK AO2 SLP025 T00171011 FZRANO
  • 270956Z AUTO 20003KT 10SM BKN040 02/M02 A2959 RMK AO2 SLP024 T00171017 FZRANO
  • 270856Z AUTO VRB03KT 10SM OVC043 02/M02 A2959 RMK AO2 SLP024 T00171017 400391017 53008 FZRANO

TAF PADU
Valide du 27 à 12h jusqu'au 28 à 12h UTC


271144Z 2712/2812 VRB05KT P6SM VCSH BKN035
FM271500 VRB03KT 5SM -RASN BKN025
FM272100 30005KT P6SM VCSH BKN050



MET'MAP, la Météo Aéronautique d'un coup d'oeil ! - Copyright ORBIFLY Décembre 2007 - Disclaimer

ORBIFLY MET'MAP TEAM :

Programmation & Développement : Alexandra Zaïnal
Sur une idée originale de : Baudouin d'Aumeries
Assistance à la programmation : Marc-Olivier Méhu
Soutien technique & logistique : Manuel Goepfert

Contact : metmap@orbifly.com




SOURCES & CREDITS :

   NOAA       Earth
Advisory